Airport Information

KBFI - Boeing Fld King Co Intl Airport

KBFI 082253Z 30008KT 10SM SCT022 OVC039 21/09 A3021 RMK AO2 SLP231 T02060094


  • General Information

  • Coordinates: N 47°31'48"/ W 122°18'7"
  • Location: N/A
  • Surveyed Elevation: 21 MSL

Operations

Flow Name Active Runways Conditions
North Flow Landing: 32L/32R
Departing: 32L/32R
Wind Direction: 221-039°
Wind Speed: ≥6
South Flow Landing: 14R/14L
Departing: 14R/14L
Wind Direction: 040-220°
Wind Speed: <5 or CALM

Green background denotes normal operations.


Common Frequencies

Callsign Frequency Position Name
BFI_DEL 132.400 Boeing Delivery
BFI_GND 121.900 Boeing Ground
BFR_TWR 118.300 Boeing Tower

More at the Document Center


Charts

Name Description Cycle
CBAIN ONE (RNAV) Page 1 2007
KENT EIGHT Page 1 | Page 2 2007
NEEDLE ONE Page 1 2007
NRVNA ONE (RNAV) Page 1 2007
Name Description Cycle
CHINS FOUR Page 1 | Page 2 2007
EPHRATA EIGHT Page 1 2007
GLASR ONE Page 1 | Page 2 2007
JAWBN SIX Page 1 2007
OLYMPIA TWO Page 1 | Page 2 2007

Flights